EmailTwitter


Surface observations / Quebec / CYSC

Regions: Quebec | Canada | USA | Europe | France | UK | Elsewhere
Station
Display
Info & Location for CYSC | Help decoding METAR

Weather Conditions observed on 2018/08/17 at 14:00 UTC at SHERBROOKE, QB (CYSC)

Sky conditions: clear.

Temperature: 19.0 Celsius.

Dewpoint: 15.0 Celsius.

Relative Humidity: 78%

Humidex: 23.

Winds: Northeast at 6 km/h or 3 knots.

Mean Sea level Pressure: 101.86 kilopascals.

Altimeter Setting (QNH): 101.83 kilopascals or 30.07 inches of mercury.

Horizontal visibility: 9.00 statute miles or 14.40 kilometers.

Coded METAR:

CYSC 171400Z AUTO 06003KT 020V090 9SM CLR 19/15 A3007 RMK SLP186 DENSITY ALT

1200FT=